Time;durP1;ratioP1;P1;durP2;ratioP2;P2;SDS_P1;SDS_P2;PMS_P1;PMS_P2;Temp;Humidity;BMP_temperature;BMP_pressure;BME280_temperature;BME280_humidity;BME280_pressure;Samples;Min_cycle;Max_cycle;Signal;HPM_P1;HPM_P2
2022/11/23 00:01:26;;;;;;;5.57;2.60;;;;;;;;;;4993184;28;20234;-85
2022/11/23 00:03:54;;;;;;;5.33;2.50;;;;;;;;;;4999209;28;20682;-86
2022/11/23 00:06:22;;;;;;;5.97;3.07;;;;;;;;;;5012627;28;20235;-85
2022/11/23 00:08:50;;;;;;;4.10;2.60;;;;;;;;;;5000003;28;20250;-85
2022/11/23 00:11:18;;;;;;;3.10;2.60;;;;;;;;;;4992392;28;20244;-86
2022/11/23 00:13:46;;;;;;;6.70;3.03;;;;;;;;;;4996475;28;20550;-86
2022/11/23 00:16:14;;;;;;;5.73;3.00;;;;;;;;;;5002856;28;20245;-86
2022/11/23 00:18:41;;;;;;;3.73;2.10;;;;;;;;;;5012228;28;20226;-84
2022/11/23 00:21:08;;;;;;;6.97;2.70;;;;;;;;;;5010224;28;20253;-84
2022/11/23 00:23:36;;;;;;;4.07;2.60;;;;;;;;;;5008721;28;20211;-84
2022/11/23 00:26:03;;;;;;;5.60;2.40;;;;;;;;;;4999708;28;20766;-84
2022/11/23 00:28:33;;;;;;;3.37;2.33;;;;;;;;;;5011863;28;20595;-85
2022/11/23 00:31:00;;;;;;;9.77;3.00;;;;;;;;;;4993346;28;20701;-85
2022/11/23 00:33:27;;;;;;;7.83;2.70;;;;;;;;;;4992634;28;20207;-85
2022/11/23 00:36:01;;;;;;;5.30;2.90;;;;;;;;;;4992480;28;20239;-85
2022/11/23 00:38:28;;;;;;;2.73;2.50;;;;;;;;;;4973781;28;20228;-85
2022/11/23 00:40:59;;;;;;;6.83;2.47;;;;;;;;;;4996100;28;20227;-84
2022/11/23 00:43:26;;;;;;;5.50;2.97;;;;;;;;;;5009781;28;20211;-85
2022/11/23 00:46:04;;;;;;;8.30;3.43;;;;;;;;;;4992193;28;20250;-85
2022/11/23 00:48:31;;;;;;;3.83;2.50;;;;;;;;;;4979984;28;20242;-84
2022/11/23 00:50:58;;;;;;;6.77;2.57;;;;;;;;;;4984702;28;20240;-85
2022/11/23 00:53:25;;;;;;;2.83;2.10;;;;;;;;;;4992466;28;20222;-84
2022/11/23 00:55:52;;;;;;;5.00;2.60;;;;;;;;;;4994328;28;20243;-84
2022/11/23 00:58:20;;;;;;;10.10;3.20;;;;;;;;;;4991952;28;20255;-85
2022/11/23 01:00:47;;;;;;;4.77;2.43;;;;;;;;;;4991461;28;20224;-85
2022/11/23 01:03:15;;;;;;;6.03;2.63;;;;;;;;;;4998604;28;20234;-85
2022/11/23 01:05:43;;;;;;;3.80;2.43;;;;;;;;;;5010751;28;20234;-85
2022/11/23 01:08:10;;;;;;;3.23;2.67;;;;;;;;;;5003345;28;20222;-84
2022/11/23 01:10:37;;;;;;;10.40;2.50;;;;;;;;;;4993616;28;20238;-85
2022/11/23 01:13:04;;;;;;;4.43;2.47;;;;;;;;;;4992397;28;20239;-84
2022/11/23 01:15:31;;;;;;;5.13;2.60;;;;;;;;;;4981508;28;20239;-85
2022/11/23 01:17:58;;;;;;;3.30;2.30;;;;;;;;;;4983143;28;20236;-85
2022/11/23 01:20:26;;;;;;;7.57;2.63;;;;;;;;;;4994068;28;20203;-85
2022/11/23 01:22:53;;;;;;;8.57;2.70;;;;;;;;;;4994810;28;20223;-85
2022/11/23 01:25:20;;;;;;;5.50;2.80;;;;;;;;;;5001607;28;20222;-84
2022/11/23 01:27:47;;;;;;;4.40;2.70;;;;;;;;;;5021927;22;20258;-82
2022/11/23 01:30:15;;;;;;;11.50;2.80;;;;;;;;;;5009919;28;20223;-81
2022/11/23 01:32:42;;;;;;;6.47;2.20;;;;;;;;;;5012025;28;20211;-81
2022/11/23 01:35:09;;;;;;;3.87;2.30;;;;;;;;;;5013876;28;20202;-81
2022/11/23 01:37:38;;;;;;;7.47;2.30;;;;;;;;;;5014826;28;20238;-81
2022/11/23 01:40:05;;;;;;;5.40;2.83;;;;;;;;;;5012947;28;20218;-82
2022/11/23 01:42:40;;;;;;;5.60;2.47;;;;;;;;;;5015054;28;20234;-81
2022/11/23 01:45:26;;;;;;;4.97;2.57;;;;;;;;;;5014431;28;20225;-81
2022/11/23 01:47:53;;;;;;;6.53;2.33;;;;;;;;;;5014503;28;20234;-81
2022/11/23 01:50:20;;;;;;;6.20;2.77;;;;;;;;;;5012006;28;20656;-81
2022/11/23 01:52:48;;;;;;;3.90;2.47;;;;;;;;;;5004757;28;20208;-81
2022/11/23 01:55:15;;;;;;;4.40;2.30;;;;;;;;;;5008491;28;20666;-81
2022/11/23 01:57:44;;;;;;;5.97;3.27;;;;;;;;;;4996769;28;20216;-81
2022/11/23 02:00:12;;;;;;;7.33;2.10;;;;;;;;;;5010850;28;20231;-81
2022/11/23 02:02:42;;;;;;;5.40;2.67;;;;;;;;;;5008446;28;20282;-80
2022/11/23 02:05:10;;;;;;;12.03;2.67;;;;;;;;;;5011691;28;20208;-81
2022/11/23 02:07:38;;;;;;;4.33;1.97;;;;;;;;;;5014505;28;20238;-81
2022/11/23 02:10:07;;;;;;;4.93;2.80;;;;;;;;;;5013948;28;20812;-81
2022/11/23 02:12:34;;;;;;;4.87;2.33;;;;;;;;;;5013789;28;20227;-81
2022/11/23 02:15:01;;;;;;;5.23;2.30;;;;;;;;;;5014140;28;20207;-80
2022/11/23 02:17:28;;;;;;;6.00;2.73;;;;;;;;;;5005304;28;20250;-81
2022/11/23 02:19:59;;;;;;;8.23;2.53;;;;;;;;;;5003728;28;20218;-81
2022/11/23 02:22:29;;;;;;;7.40;2.90;;;;;;;;;;5001972;28;20228;-82
2022/11/23 02:24:57;;;;;;;4.67;2.20;;;;;;;;;;5013295;28;20207;-82
2022/11/23 02:27:25;;;;;;;6.33;2.67;;;;;;;;;;5013682;28;20232;-81
2022/11/23 02:29:53;;;;;;;4.13;2.27;;;;;;;;;;5002275;28;20215;-81
2022/11/23 02:32:21;;;;;;;3.30;2.40;;;;;;;;;;4993755;28;20251;-82
2022/11/23 02:34:49;;;;;;;10.20;2.30;;;;;;;;;;5013460;28;20219;-82
2022/11/23 02:37:16;;;;;;;5.60;2.53;;;;;;;;;;5013335;28;20236;-82
2022/11/23 02:39:45;;;;;;;5.63;3.60;;;;;;;;;;5005046;28;21041;-82
2022/11/23 02:42:12;;;;;;;6.27;2.50;;;;;;;;;;5013257;28;20235;-82
2022/11/23 02:44:43;;;;;;;6.13;2.73;;;;;;;;;;5013883;28;20210;-81
2022/11/23 02:47:10;;;;;;;5.00;2.50;;;;;;;;;;5002913;28;20254;-82
2022/11/23 02:49:37;;;;;;;5.73;3.00;;;;;;;;;;5012746;28;20238;-82
2022/11/23 02:52:05;;;;;;;3.23;2.20;;;;;;;;;;5012804;28;20227;-81
2022/11/23 02:54:32;;;;;;;5.07;2.50;;;;;;;;;;5013816;28;20214;-81
2022/11/23 02:56:59;;;;;;;4.37;2.50;;;;;;;;;;5009682;28;20727;-80
2022/11/23 02:59:26;;;;;;;4.30;2.37;;;;;;;;;;5012270;28;20703;-82
2022/11/23 03:01:54;;;;;;;6.40;2.40;;;;;;;;;;5012488;28;20226;-80
2022/11/23 03:04:22;;;;;;;5.13;2.33;;;;;;;;;;5012874;28;20199;-80
2022/11/23 03:06:49;;;;;;;3.50;2.57;;;;;;;;;;5012551;28;20235;-80
2022/11/23 03:09:16;;;;;;;5.63;2.40;;;;;;;;;;5012938;28;20228;-80
2022/11/23 03:11:43;;;;;;;4.53;2.53;;;;;;;;;;5007124;28;20232;-80
2022/11/23 03:14:10;;;;;;;6.30;2.57;;;;;;;;;;5012743;28;20581;-80
2022/11/23 03:16:38;;;;;;;8.03;2.93;;;;;;;;;;5012362;28;20232;-80
2022/11/23 03:19:06;;;;;;;3.40;2.37;;;;;;;;;;5012126;28;20223;-80
2022/11/23 03:21:33;;;;;;;9.27;3.50;;;;;;;;;;5011102;28;20908;-80
2022/11/23 03:24:00;;;;;;;5.03;2.63;;;;;;;;;;5013114;28;20195;-80
2022/11/23 03:26:27;;;;;;;2.50;2.30;;;;;;;;;;4997738;28;20227;-80
2022/11/23 03:28:54;;;;;;;9.17;3.17;;;;;;;;;;5012503;28;20239;-80
2022/11/23 03:31:22;;;;;;;7.27;3.00;;;;;;;;;;5010427;28;20232;-80
2022/11/23 03:33:49;;;;;;;6.93;2.40;;;;;;;;;;5012230;28;20212;-83
2022/11/23 03:36:17;;;;;;;7.40;3.43;;;;;;;;;;5012179;28;20726;-82
2022/11/23 03:38:44;;;;;;;6.27;2.80;;;;;;;;;;5011913;28;20798;-81
2022/11/23 03:41:11;;;;;;;6.30;2.43;;;;;;;;;;5010457;28;20230;-81
2022/11/23 03:43:38;;;;;;;4.77;2.60;;;;;;;;;;5011527;28;20214;-81
2022/11/23 03:46:06;;;;;;;3.10;2.80;;;;;;;;;;5005353;28;20223;-81
2022/11/23 03:48:33;;;;;;;4.63;2.40;;;;;;;;;;5005651;28;20227;-81
2022/11/23 03:51:00;;;;;;;4.37;2.67;;;;;;;;;;5005062;28;20246;-83
2022/11/23 03:53:28;;;;;;;5.70;2.80;;;;;;;;;;5010241;28;20226;-81
2022/11/23 03:55:57;;;;;;;4.20;2.70;;;;;;;;;;4994202;28;20246;-81
2022/11/23 03:58:25;;;;;;;6.97;2.40;;;;;;;;;;5004121;28;20267;-82
2022/11/23 04:00:52;;;;;;;5.90;2.83;;;;;;;;;;5002115;28;20239;-82
2022/11/23 04:03:19;;;;;;;5.87;2.40;;;;;;;;;;5004296;28;20204;-82
2022/11/23 04:05:46;;;;;;;6.63;2.53;;;;;;;;;;5006900;28;20231;-82
2022/11/23 04:08:13;;;;;;;9.13;2.97;;;;;;;;;;5012281;28;20953;-81
2022/11/23 04:10:42;;;;;;;5.63;2.70;;;;;;;;;;5011957;28;20704;-82
2022/11/23 04:13:09;;;;;;;5.93;2.83;;;;;;;;;;5012719;28;20215;-82
2022/11/23 04:15:36;;;;;;;9.07;3.10;;;;;;;;;;5012067;28;20273;-83
2022/11/23 04:18:03;;;;;;;4.13;2.97;;;;;;;;;;5012158;28;20219;-81
2022/11/23 04:20:30;;;;;;;7.23;2.83;;;;;;;;;;5004269;28;20274;-81
2022/11/23 04:22:57;;;;;;;4.30;2.70;;;;;;;;;;4996703;28;20216;-82
2022/11/23 04:25:25;;;;;;;6.13;2.60;;;;;;;;;;5011361;28;20593;-82
2022/11/23 04:27:53;;;;;;;6.10;3.27;;;;;;;;;;5011812;28;20269;-82
2022/11/23 04:30:20;;;;;;;6.97;2.80;;;;;;;;;;5012120;28;20648;-84
2022/11/23 04:32:48;;;;;;;2.90;2.40;;;;;;;;;;5011961;28;20230;-82
2022/11/23 04:35:15;;;;;;;8.03;2.90;;;;;;;;;;5012079;28;20207;-82
2022/11/23 04:37:42;;;;;;;8.37;2.77;;;;;;;;;;5012282;28;20203;-82
2022/11/23 04:40:09;;;;;;;6.50;2.80;;;;;;;;;;5011675;28;20203;-81
2022/11/23 04:42:37;;;;;;;6.83;2.77;;;;;;;;;;5001597;28;20571;-82
2022/11/23 04:45:05;;;;;;;4.57;2.73;;;;;;;;;;5007688;28;20219;-82
2022/11/23 04:47:33;;;;;;;3.73;2.57;;;;;;;;;;4992129;28;20212;-82
2022/11/23 04:50:00;;;;;;;6.30;2.97;;;;;;;;;;4996012;28;20203;-82
2022/11/23 04:52:27;;;;;;;6.50;2.83;;;;;;;;;;5007608;28;20235;-82
2022/11/23 04:54:54;;;;;;;8.47;3.17;;;;;;;;;;5011330;28;20666;-81
2022/11/23 04:57:21;;;;;;;4.90;3.07;;;;;;;;;;5010925;28;20228;-83
2022/11/23 04:59:48;;;;;;;9.73;3.43;;;;;;;;;;5003723;28;20223;-82
2022/11/23 05:02:16;;;;;;;8.83;3.40;;;;;;;;;;5010275;28;20234;-83
2022/11/23 05:04:43;;;;;;;7.20;3.53;;;;;;;;;;5000215;28;20218;-83
2022/11/23 05:07:10;;;;;;;6.03;3.83;;;;;;;;;;5001588;28;20223;-82
2022/11/23 05:09:38;;;;;;;6.37;3.53;;;;;;;;;;5011727;28;20285;-81
2022/11/23 05:12:05;;;;;;;7.10;3.63;;;;;;;;;;5008691;28;20597;-81
2022/11/23 05:14:32;;;;;;;8.13;4.37;;;;;;;;;;5014804;28;20215;-81
2022/11/23 05:16:59;;;;;;;13.77;4.90;;;;;;;;;;5002394;28;20240;-81
2022/11/23 05:19:28;;;;;;;6.90;3.80;;;;;;;;;;4996171;28;20242;-82
2022/11/23 05:21:55;;;;;;;10.20;3.80;;;;;;;;;;4995580;28;20706;-81
2022/11/23 05:24:22;;;;;;;13.47;3.67;;;;;;;;;;4995926;28;20217;-81
2022/11/23 05:26:49;;;;;;;6.87;2.93;;;;;;;;;;4995394;28;20653;-83
2022/11/23 05:29:17;;;;;;;4.50;2.40;;;;;;;;;;4995411;28;20232;-81
2022/11/23 05:31:44;;;;;;;4.93;2.73;;;;;;;;;;5003705;28;20238;-81
2022/11/23 05:34:11;;;;;;;11.53;2.77;;;;;;;;;;5016174;28;20212;-81
2022/11/23 05:36:39;;;;;;;4.37;2.50;;;;;;;;;;5015503;28;20239;-81
2022/11/23 05:39:06;;;;;;;7.53;2.40;;;;;;;;;;5015158;28;20323;-82
2022/11/23 05:41:33;;;;;;;6.40;3.00;;;;;;;;;;5015431;28;20235;-81
2022/11/23 05:44:00;;;;;;;5.17;2.70;;;;;;;;;;5016148;28;20219;-81
2022/11/23 05:46:27;;;;;;;3.60;2.40;;;;;;;;;;5015198;28;20246;-82
2022/11/23 05:48:55;;;;;;;3.13;2.50;;;;;;;;;;5014809;28;20232;-82
2022/11/23 05:51:22;;;;;;;6.73;3.30;;;;;;;;;;5001410;28;20231;-83
2022/11/23 05:53:50;;;;;;;6.07;2.60;;;;;;;;;;5014968;28;20199;-81
2022/11/23 05:56:17;;;;;;;5.33;2.70;;;;;;;;;;5014461;28;20309;-81
2022/11/23 05:58:45;;;;;;;3.70;2.70;;;;;;;;;;5014573;28;20620;-81
2022/11/23 06:01:12;;;;;;;11.07;3.67;;;;;;;;;;5014384;28;20235;-81
2022/11/23 06:03:39;;;;;;;6.00;3.20;;;;;;;;;;5014947;28;20206;-80
2022/11/23 06:06:06;;;;;;;6.40;3.00;;;;;;;;;;5014051;28;20238;-81
2022/11/23 06:08:33;;;;;;;9.57;3.57;;;;;;;;;;5012659;28;20715;-80
2022/11/23 06:11:02;;;;;;;4.43;2.83;;;;;;;;;;5013848;28;20227;-80
2022/11/23 06:13:29;;;;;;;4.93;3.47;;;;;;;;;;4998990;28;20224;-81
2022/11/23 06:15:57;;;;;;;9.03;3.40;;;;;;;;;;5001935;28;20234;-80
2022/11/23 06:18:24;;;;;;;6.07;2.87;;;;;;;;;;5015224;28;20820;-79
2022/11/23 06:20:51;;;;;;;8.00;3.33;;;;;;;;;;5014264;28;20573;-79
2022/11/23 06:23:18;;;;;;;6.70;3.37;;;;;;;;;;5014473;28;20218;-79
2022/11/23 06:25:45;;;;;;;10.87;3.40;;;;;;;;;;5013881;28;20235;-80
2022/11/23 06:28:14;;;;;;;6.93;3.10;;;;;;;;;;5013774;28;20238;-80
2022/11/23 06:30:41;;;;;;;4.00;2.80;;;;;;;;;;5013614;28;20741;-80
2022/11/23 06:33:12;;;;;;;5.47;3.30;;;;;;;;;;5014121;28;20230;-80
2022/11/23 06:35:39;;;;;;;4.73;3.60;;;;;;;;;;5013699;28;20293;-80
2022/11/23 06:38:06;;;;;;;5.43;2.87;;;;;;;;;;5004589;28;20232;-80
2022/11/23 06:40:33;;;;;;;6.00;3.37;;;;;;;;;;5001861;28;20700;-80
2022/11/23 06:43:00;;;;;;;13.87;3.60;;;;;;;;;;5008199;28;20683;-80
2022/11/23 06:45:29;;;;;;;4.40;2.80;;;;;;;;;;5008939;28;20242;-80
2022/11/23 06:47:56;;;;;;;7.30;3.53;;;;;;;;;;4994250;28;20732;-80
2022/11/23 06:50:23;;;;;;;8.13;3.53;;;;;;;;;;4993693;28;21296;-79
2022/11/23 06:52:54;;;;;;;8.23;3.30;;;;;;;;;;4993936;28;20750;-79
2022/11/23 06:55:21;;;;;;;9.03;4.00;;;;;;;;;;4993943;28;20197;-80
2022/11/23 06:57:48;;;;;;;10.00;3.93;;;;;;;;;;4994341;28;20239;-80
2022/11/23 07:00:16;;;;;;;6.00;3.43;;;;;;;;;;4994000;28;20208;-80
2022/11/23 07:02:44;;;;;;;9.73;4.20;;;;;;;;;;4994439;28;20215;-79
2022/11/23 07:05:11;;;;;;;7.17;3.30;;;;;;;;;;4993820;28;20196;-80
2022/11/23 07:07:39;;;;;;;8.40;3.43;;;;;;;;;;4994242;28;20196;-80
2022/11/23 07:10:07;;;;;;;9.37;3.10;;;;;;;;;;4993995;28;20195;-80
2022/11/23 07:12:34;;;;;;;7.93;3.53;;;;;;;;;;4993920;28;20231;-80
2022/11/23 07:15:01;;;;;;;9.63;3.57;;;;;;;;;;4994080;28;20207;-80
2022/11/23 07:17:28;;;;;;;8.40;3.43;;;;;;;;;;4993727;28;20224;-80
2022/11/23 07:19:57;;;;;;;6.30;2.93;;;;;;;;;;4992589;28;20207;-79
2022/11/23 07:22:24;;;;;;;6.70;2.80;;;;;;;;;;4993256;28;20228;-80
2022/11/23 07:24:51;;;;;;;5.97;3.23;;;;;;;;;;4994036;28;20223;-80
2022/11/23 07:27:19;;;;;;;5.93;3.00;;;;;;;;;;4993299;28;20242;-80
2022/11/23 07:29:46;;;;;;;5.50;2.40;;;;;;;;;;5033774;23;20227;-78
2022/11/23 07:32:14;;;;;;;5.93;3.63;;;;;;;;;;5031070;28;20237;-78
2022/11/23 07:34:41;;;;;;;4.93;2.90;;;;;;;;;;5031092;28;20217;-78
2022/11/23 07:37:10;;;;;;;10.13;3.40;;;;;;;;;;5031155;28;20235;-78
2022/11/23 07:39:37;;;;;;;2.83;2.10;;;;;;;;;;5031576;28;20227;-77
2022/11/23 07:42:04;;;;;;;3.00;2.50;;;;;;;;;;5031285;28;20230;-78
2022/11/23 07:44:31;;;;;;;5.60;2.90;;;;;;;;;;5031855;28;20206;-78
2022/11/23 07:46:58;;;;;;;5.40;2.60;;;;;;;;;;5031377;28;20231;-79
2022/11/23 07:49:25;;;;;;;6.13;2.73;;;;;;;;;;5031109;28;20302;-78
2022/11/23 07:51:53;;;;;;;7.40;3.03;;;;;;;;;;5031167;28;20235;-78
2022/11/23 07:54:21;;;;;;;7.63;2.60;;;;;;;;;;5031350;28;20225;-78
2022/11/23 07:56:48;;;;;;;5.13;2.73;;;;;;;;;;5031406;28;20242;-78
2022/11/23 07:59:15;;;;;;;4.37;3.03;;;;;;;;;;5024842;28;20226;-78
2022/11/23 08:01:43;;;;;;;5.87;3.17;;;;;;;;;;5025855;28;20263;-78
2022/11/23 08:04:10;;;;;;;5.13;2.70;;;;;;;;;;5030661;28;20202;-78
2022/11/23 08:06:37;;;;;;;7.23;2.70;;;;;;;;;;5030105;28;20231;-78
2022/11/23 08:09:04;;;;;;;4.80;2.83;;;;;;;;;;5026418;28;20222;-78
2022/11/23 08:11:32;;;;;;;7.40;2.67;;;;;;;;;;5030261;28;20230;-78
2022/11/23 08:13:59;;;;;;;6.60;3.03;;;;;;;;;;5031415;28;20233;-79
2022/11/23 08:16:26;;;;;;;9.03;3.87;;;;;;;;;;5031307;28;20245;-79
2022/11/23 08:18:53;;;;;;;5.70;2.77;;;;;;;;;;5031093;28;20222;-78
2022/11/23 08:21:21;;;;;;;6.87;2.40;;;;;;;;;;5030948;28;20234;-79
2022/11/23 08:23:48;;;;;;;7.37;3.00;;;;;;;;;;5031577;28;20222;-78
2022/11/23 08:26:15;;;;;;;7.77;3.00;;;;;;;;;;5030993;28;20231;-79
2022/11/23 08:28:43;;;;;;;4.40;2.53;;;;;;;;;;5031335;28;20253;-79
2022/11/23 08:31:11;;;;;;;4.93;2.60;;;;;;;;;;5030889;28;20230;-77
2022/11/23 08:33:38;;;;;;;4.77;2.77;;;;;;;;;;5031399;28;20718;-77
2022/11/23 08:36:05;;;;;;;4.00;2.00;;;;;;;;;;5030991;28;20576;-77
2022/11/23 08:38:33;;;;;;;6.73;2.40;;;;;;;;;;5031449;28;20596;-77
2022/11/23 08:41:00;;;;;;;5.70;2.43;;;;;;;;;;5030897;28;20272;-79
2022/11/23 08:43:27;;;;;;;5.23;2.67;;;;;;;;;;5031523;28;20874;-78
2022/11/23 08:45:56;;;;;;;3.07;2.13;;;;;;;;;;5031082;28;20253;-78
2022/11/23 08:48:23;;;;;;;3.93;2.20;;;;;;;;;;5031024;28;20222;-77
2022/11/23 08:50:50;;;;;;;4.97;2.50;;;;;;;;;;5030882;28;20234;-78
2022/11/23 08:53:17;;;;;;;5.87;2.33;;;;;;;;;;5031095;28;20222;-79
2022/11/23 08:55:44;;;;;;;6.53;2.73;;;;;;;;;;5030898;28;20316;-78
2022/11/23 08:58:11;;;;;;;6.10;2.43;;;;;;;;;;5030922;28;20241;-79
2022/11/23 09:00:38;;;;;;;4.90;2.10;;;;;;;;;;5030993;28;20365;-79
2022/11/23 09:03:07;;;;;;;4.37;2.23;;;;;;;;;;5031329;28;20203;-79
2022/11/23 09:05:34;;;;;;;4.63;2.13;;;;;;;;;;5030758;28;20238;-79
2022/11/23 09:08:01;;;;;;;4.50;2.00;;;;;;;;;;5030871;28;20229;-79
2022/11/23 09:10:28;;;;;;;5.63;2.37;;;;;;;;;;5030821;28;20230;-79
2022/11/23 09:12:55;;;;;;;3.50;2.07;;;;;;;;;;5031173;28;20227;-79
2022/11/23 09:15:23;;;;;;;3.47;2.27;;;;;;;;;;5030579;28;20219;-79
2022/11/23 09:17:50;;;;;;;5.17;2.20;;;;;;;;;;5030852;28;20214;-79
2022/11/23 09:20:19;;;;;;;6.47;2.37;;;;;;;;;;5030645;28;20215;-79
2022/11/23 09:22:51;;;;;;;4.37;2.30;;;;;;;;;;5031232;28;20567;-79
2022/11/23 09:25:18;;;;;;;2.87;1.83;;;;;;;;;;5030578;28;20214;-79
2022/11/23 09:27:45;;;;;;;3.90;2.10;;;;;;;;;;5030864;28;20222;-78
2022/11/23 09:30:13;;;;;;;5.77;2.30;;;;;;;;;;5030428;28;20222;-79
2022/11/23 09:32:40;;;;;;;8.10;2.80;;;;;;;;;;5030927;28;20720;-79
2022/11/23 09:35:08;;;;;;;6.03;2.57;;;;;;;;;;5030388;28;20666;-79
2022/11/23 09:37:36;;;;;;;3.67;2.17;;;;;;;;;;5031343;28;20211;-79
2022/11/23 09:40:03;;;;;;;5.90;2.33;;;;;;;;;;5030779;28;20226;-79
2022/11/23 09:42:46;;;;;;;5.00;2.13;;;;;;;;;;5031294;28;20230;-79
2022/11/23 09:45:19;;;;;;;5.30;2.40;;;;;;;;;;5033919;28;20663;-79
2022/11/23 09:47:54;;;;;;;6.43;2.50;;;;;;;;;;5034277;28;20226;-79
2022/11/23 09:50:23;;;;;;;7.07;2.40;;;;;;;;;;5034221;28;20301;-79
2022/11/23 09:52:52;;;;;;;7.17;2.10;;;;;;;;;;5034334;28;20227;-79
2022/11/23 09:55:22;;;;;;;14.03;4.33;;;;;;;;;;5033726;28;20554;-79
2022/11/23 09:57:49;;;;;;;5.77;1.90;;;;;;;;;;5033926;28;20206;-79
2022/11/23 10:00:19;;;;;;;5.03;2.50;;;;;;;;;;5033609;28;20682;-79
2022/11/23 10:02:46;;;;;;;3.77;2.30;;;;;;;;;;5034284;28;20203;-79
2022/11/23 10:05:16;;;;;;;2.03;1.83;;;;;;;;;;5033424;28;20203;-79
2022/11/23 10:07:50;;;;;;;7.33;2.20;;;;;;;;;;5033960;28;20203;-78
2022/11/23 10:10:28;;;;;;;6.87;2.67;;;;;;;;;;5033442;28;20202;-79
2022/11/23 10:13:00;;;;;;;6.00;2.30;;;;;;;;;;5033600;28;20223;-79
2022/11/23 10:15:28;;;;;;;5.90;2.07;;;;;;;;;;5033493;28;20237;-78
2022/11/23 10:18:03;;;;;;;4.27;2.00;;;;;;;;;;5033511;28;20683;-78
2022/11/23 10:20:44;;;;;;;2.53;2.13;;;;;;;;;;5033545;28;20249;-78
2022/11/23 10:23:14;;;;;;;6.27;2.33;;;;;;;;;;5033686;28;20206;-78
2022/11/23 10:25:47;;;;;;;3.60;2.10;;;;;;;;;;5033435;28;20235;-78
2022/11/23 10:28:15;;;;;;;4.10;2.23;;;;;;;;;;5033062;28;20242;-79
2022/11/23 10:30:42;;;;;;;7.37;2.83;;;;;;;;;;5033007;28;20717;-78
2022/11/23 10:33:17;;;;;;;6.40;2.40;;;;;;;;;;5033431;28;20229;-78
2022/11/23 10:35:44;;;;;;;4.07;2.43;;;;;;;;;;5033142;28;20744;-77
2022/11/23 10:38:12;;;;;;;5.03;2.20;;;;;;;;;;5032864;28;20235;-77
2022/11/23 10:40:40;;;;;;;3.43;1.87;;;;;;;;;;5033052;28;20246;-78
2022/11/23 10:43:15;;;;;;;8.07;2.43;;;;;;;;;;5033522;28;20210;-78
2022/11/23 10:45:42;;;;;;;12.97;2.63;;;;;;;;;;5032871;28;20523;-77
2022/11/23 10:48:09;;;;;;;10.67;2.07;;;;;;;;;;5032940;28;20227;-77
2022/11/23 10:50:39;;;;;;;5.10;2.37;;;;;;;;;;5032923;28;20239;-77
2022/11/23 10:53:21;;;;;;;5.67;2.03;;;;;;;;;;5032810;28;20757;-77
2022/11/23 10:55:49;;;;;;;4.03;1.93;;;;;;;;;;5033013;28;20244;-77
2022/11/23 10:58:26;;;;;;;3.40;1.97;;;;;;;;;;5032647;28;20222;-79
2022/11/23 11:00:59;;;;;;;6.10;2.20;;;;;;;;;;5032794;28;20318;-77
2022/11/23 11:03:26;;;;;;;4.10;2.10;;;;;;;;;;5032833;28;20242;-77
2022/11/23 11:05:57;;;;;;;5.70;3.30;;;;;;;;;;5032402;28;20237;-79
2022/11/23 11:08:28;;;;;;;6.60;2.83;;;;;;;;;;5032476;28;20722;-78
2022/11/23 11:10:58;;;;;;;8.27;2.50;;;;;;;;;;5032553;28;20238;-78
2022/11/23 11:13:29;;;;;;;2.77;2.00;;;;;;;;;;5025325;28;20226;-78
2022/11/23 11:15:57;;;;;;;4.07;1.70;;;;;;;;;;5029691;28;20288;-78
2022/11/23 11:18:27;;;;;;;7.57;2.60;;;;;;;;;;5031195;28;20222;-78
2022/11/23 11:20:57;;;;;;;5.43;2.03;;;;;;;;;;5031292;28;20234;-78
2022/11/23 11:23:24;;;;;;;4.73;2.33;;;;;;;;;;5018911;28;20222;-78
2022/11/23 11:25:54;;;;;;;6.40;2.07;;;;;;;;;;5028941;28;20323;-78
2022/11/23 11:28:24;;;;;;;3.73;2.00;;;;;;;;;;5030948;28;20238;-78
2022/11/23 11:30:55;;;;;;;2.07;1.93;;;;;;;;;;5030858;28;20600;-78
2022/11/23 11:33:25;;;;;;;5.80;2.23;;;;;;;;;;5031663;28;20223;-78
2022/11/23 11:35:54;;;;;;;6.50;2.40;;;;;;;;;;5031350;28;20261;-78
2022/11/23 11:38:26;;;;;;;11.87;2.87;;;;;;;;;;5031469;28;20242;-78
2022/11/23 11:40:53;;;;;;;13.33;5.43;;;;;;;;;;5031442;28;20280;-78
2022/11/23 11:43:22;;;;;;;13.73;7.17;;;;;;;;;;5031484;28;20215;-78
2022/11/23 11:45:50;;;;;;;10.00;2.57;;;;;;;;;;5031408;28;20235;-78
2022/11/23 11:48:20;;;;;;;9.77;3.90;;;;;;;;;;5031361;28;20234;-78
2022/11/23 11:50:51;;;;;;;5.07;1.80;;;;;;;;;;5031514;28;20237;-78
2022/11/23 11:53:19;;;;;;;2.23;1.70;;;;;;;;;;5031100;28;20721;-78
2022/11/23 11:55:50;;;;;;;3.43;1.73;;;;;;;;;;5030993;28;20236;-78
2022/11/23 11:58:18;;;;;;;3.57;2.23;;;;;;;;;;5031015;28;20226;-78
2022/11/23 12:00:46;;;;;;;4.03;2.07;;;;;;;;;;5031055;28;20592;-78
2022/11/23 12:03:19;;;;;;;6.77;2.30;;;;;;;;;;5031041;28;20228;-78
2022/11/23 12:05:50;;;;;;;4.33;1.90;;;;;;;;;;5029898;28;20592;-78
2022/11/23 12:08:19;;;;;;;8.43;2.10;;;;;;;;;;5030806;28;20235;-78
2022/11/23 12:10:49;;;;;;;5.87;2.10;;;;;;;;;;5030892;28;20235;-78
2022/11/23 12:13:18;;;;;;;2.53;1.70;;;;;;;;;;5030673;28;20214;-78
2022/11/23 12:15:47;;;;;;;3.10;1.77;;;;;;;;;;5030569;28;20338;-78
2022/11/23 12:18:19;;;;;;;2.00;1.53;;;;;;;;;;5030655;28;20223;-78
2022/11/23 12:20:51;;;;;;;4.17;1.73;;;;;;;;;;5030744;28;20238;-78
2022/11/23 12:23:23;;;;;;;3.67;2.17;;;;;;;;;;5031111;28;20211;-78
2022/11/23 12:25:54;;;;;;;12.50;2.50;;;;;;;;;;5030724;28;20239;-78
2022/11/23 12:28:33;;;;;;;3.63;1.77;;;;;;;;;;5030647;28;20239;-78
2022/11/23 12:31:04;;;;;;;3.37;1.93;;;;;;;;;;5030631;28;20234;-79
2022/11/23 12:33:37;;;;;;;2.77;1.73;;;;;;;;;;5030753;28;20250;-79
2022/11/23 12:36:19;;;;;;;5.03;1.50;;;;;;;;;;5022733;28;20744;-79
2022/11/23 12:38:49;;;;;;;2.00;1.60;;;;;;;;;;5029834;28;20230;-79
2022/11/23 12:41:30;;;;;;;4.40;2.33;;;;;;;;;;5030415;28;20241;-79
2022/11/23 12:44:05;;;;;;;2.20;1.60;;;;;;;;;;5030553;28;20205;-79
2022/11/23 12:46:36;;;;;;;4.17;2.17;;;;;;;;;;5026147;28;20603;-79
2022/11/23 12:49:14;;;;;;;4.10;2.10;;;;;;;;;;5030950;28;20241;-79
2022/11/23 12:51:46;;;;;;;2.77;1.83;;;;;;;;;;5030052;28;20234;-79
2022/11/23 12:54:26;;;;;;;3.87;2.10;;;;;;;;;;5030604;28;20230;-79
2022/11/23 12:57:01;;;;;;;4.20;1.73;;;;;;;;;;5030363;28;20729;-79
2022/11/23 12:59:34;;;;;;;4.47;1.80;;;;;;;;;;5030155;28;20230;-78
2022/11/23 13:02:04;;;;;;;5.67;1.60;;;;;;;;;;5030022;28;20246;-79
2022/11/23 13:04:51;;;;;;;4.00;1.63;;;;;;;;;;5030060;28;20213;-78
2022/11/23 13:07:31;;;;;;;2.57;1.70;;;;;;;;;;5029801;28;20226;-78
2022/11/23 13:10:07;;;;;;;2.63;1.30;;;;;;;;;;5030369;28;20218;-78
2022/11/23 13:12:42;;;;;;;1.87;1.60;;;;;;;;;;5029793;28;20226;-78
2022/11/23 13:15:23;;;;;;;4.70;1.60;;;;;;;;;;5029459;28;20214;-79
2022/11/23 13:17:55;;;;;;;1.77;1.50;;;;;;;;;;5031785;28;20210;-78
2022/11/23 13:20:30;;;;;;;24.57;3.40;;;;;;;;;;5033896;28;20237;-78
2022/11/23 13:23:00;;;;;;;3.50;1.80;;;;;;;;;;5034486;28;20213;-78
2022/11/23 13:25:28;;;;;;;7.90;2.33;;;;;;;;;;5033623;28;20314;-78
2022/11/23 13:27:56;;;;;;;1.97;1.80;;;;;;;;;;5033796;28;20203;-79
2022/11/23 13:30:28;;;;;;;6.03;1.80;;;;;;;;;;5034200;28;20261;-78
2022/11/23 13:32:56;;;;;;;4.87;1.70;;;;;;;;;;5034405;28;20220;-78
2022/11/23 13:35:42;;;;;;;1.83;1.50;;;;;;;;;;5033267;28;20356;-78
2022/11/23 13:38:27;;;;;;;4.63;1.87;;;;;;;;;;5033754;28;20230;-78
2022/11/23 13:40:56;;;;;;;2.43;1.70;;;;;;;;;;5033730;28;20257;-78
2022/11/23 13:43:25;;;;;;;2.97;1.60;;;;;;;;;;5023190;28;20207;-79
2022/11/23 13:46:27;;;;;;;4.47;1.60;;;;;;;;;;5028023;28;20235;-79
2022/11/23 13:48:57;;;;;;;1.90;1.80;;;;;;;;;;4965421;28;20794;-79
2022/11/23 13:51:25;;;;;;;2.43;2.03;;;;;;;;;;4971808;28;20238;-79
2022/11/23 13:53:55;;;;;;;5.33;1.87;;;;;;;;;;5002224;28;20230;-78
2022/11/23 13:56:30;;;;;;;3.73;1.93;;;;;;;;;;5032376;28;20272;-79
2022/11/23 13:58:59;;;;;;;3.90;1.90;;;;;;;;;;5032187;28;20565;-81
2022/11/23 14:01:53;;;;;;;5.63;2.23;;;;;;;;;;5033001;28;20730;-81
2022/11/23 14:04:21;;;;;;;10.73;1.77;;;;;;;;;;4997897;28;20207;-80
2022/11/23 14:06:51;;;;;;;3.90;1.87;;;;;;;;;;5033076;28;20241;-80
2022/11/23 14:09:20;;;;;;;3.93;2.20;;;;;;;;;;5033047;28;20230;-80
2022/11/23 14:11:58;;;;;;;6.20;1.80;;;;;;;;;;5033237;28;20245;-82
2022/11/23 14:14:29;;;;;;;4.87;1.90;;;;;;;;;;5033523;28;20233;-81
2022/11/23 14:17:06;;;;;;;3.03;2.10;;;;;;;;;;5028179;28;20785;-80
2022/11/23 14:19:36;;;;;;;4.67;1.90;;;;;;;;;;5013508;28;20227;-80
2022/11/23 14:22:07;;;;;;;5.50;2.40;;;;;;;;;;5025153;28;20235;-80
2022/11/23 14:24:52;;;;;;;8.83;2.30;;;;;;;;;;5033326;28;20210;-79
2022/11/23 14:27:27;;;;;;;4.67;2.53;;;;;;;;;;5032558;28;20613;-79
2022/11/23 14:30:06;;;;;;;2.43;1.70;;;;;;;;;;5032387;28;20242;-81
2022/11/23 14:32:40;;;;;;;2.13;1.70;;;;;;;;;;5032984;28;20226;-79
2022/11/23 14:35:18;;;;;;;5.40;1.97;;;;;;;;;;5032516;28;20233;-79
2022/11/23 14:37:52;;;;;;;3.30;1.77;;;;;;;;;;5032477;28;20206;-78
2022/11/23 14:40:22;;;;;;;4.73;2.17;;;;;;;;;;5032356;28;20214;-79
2022/11/23 14:42:53;;;;;;;4.93;2.13;;;;;;;;;;5032916;28;20203;-81
2022/11/23 14:45:21;;;;;;;4.43;2.03;;;;;;;;;;5032221;28;20659;-80
2022/11/23 14:47:49;;;;;;;4.30;2.10;;;;;;;;;;5032604;28;20213;-80
2022/11/23 14:50:24;;;;;;;3.13;1.73;;;;;;;;;;5032403;28;20194;-80
2022/11/23 14:52:53;;;;;;;3.80;2.40;;;;;;;;;;5032635;28;20666;-79
2022/11/23 14:55:21;;;;;;;7.03;3.40;;;;;;;;;;5018524;28;20238;-78